createdAt,value
2022-11-29T00:00:19.096Z,0.00
2022-11-29T00:01:19.097Z,0.00
2022-11-29T00:02:19.194Z,0.00
2022-11-29T00:03:19.155Z,0.00
2022-11-29T00:04:19.054Z,0.00
2022-11-29T00:05:19.033Z,0.00
2022-11-29T00:06:19.026Z,0.00
2022-11-29T00:07:19.105Z,0.00
2022-11-29T00:08:19.009Z,0.00
2022-11-29T00:09:18.982Z,0.00
2022-11-29T00:10:18.995Z,0.00
2022-11-29T00:11:18.964Z,0.00
2022-11-29T00:12:18.965Z,0.00
2022-11-29T00:13:18.971Z,0.00
2022-11-29T00:14:18.934Z,0.00
2022-11-29T00:15:18.927Z,0.00
2022-11-29T00:16:18.942Z,0.00
2022-11-29T00:17:18.894Z,0.00
2022-11-29T00:18:18.908Z,0.00
2022-11-29T00:19:18.899Z,0.00
2022-11-29T00:20:18.869Z,0.00
2022-11-29T00:21:18.858Z,0.00
2022-11-29T00:22:18.876Z,0.00
2022-11-29T00:23:18.870Z,0.00
2022-11-29T00:24:18.898Z,0.00
2022-11-29T00:25:18.848Z,0.00
2022-11-29T00:26:18.816Z,0.00
2022-11-29T00:27:18.814Z,0.00
2022-11-29T00:28:18.803Z,0.00
2022-11-29T00:29:18.792Z,0.00
2022-11-29T00:30:18.762Z,0.00
2022-11-29T00:31:18.825Z,0.00
2022-11-29T00:32:18.743Z,0.00
2022-11-29T00:33:18.733Z,0.00
2022-11-29T00:34:18.737Z,0.00
2022-11-29T00:35:18.715Z,0.00
2022-11-29T00:36:18.759Z,0.00
2022-11-29T00:37:18.760Z,0.00
2022-11-29T00:38:18.685Z,0.00
2022-11-29T00:39:18.669Z,0.00
2022-11-29T00:40:18.692Z,0.00
2022-11-29T00:41:18.641Z,0.00
2022-11-29T00:42:18.642Z,0.00
2022-11-29T00:43:18.649Z,0.00
2022-11-29T00:44:20.606Z,0.00
2022-11-29T00:45:18.612Z,0.00
2022-11-29T00:46:18.612Z,0.00
2022-11-29T00:47:18.584Z,0.00
2022-11-29T00:48:18.605Z,0.00
2022-11-29T00:49:18.652Z,0.00
2022-11-29T00:50:18.575Z,0.00
2022-11-29T00:51:18.592Z,0.00
2022-11-29T00:52:18.541Z,0.00
2022-11-29T00:53:18.535Z,0.00
2022-11-29T00:54:18.524Z,0.00
2022-11-29T00:55:18.522Z,0.00
2022-11-29T00:56:18.569Z,0.00
2022-11-29T00:57:18.507Z,0.00
2022-11-29T00:58:18.504Z,0.00
2022-11-29T00:59:18.479Z,0.00
2022-11-29T01:00:18.455Z,0.00
2022-11-29T01:01:18.544Z,0.00
2022-11-29T01:02:18.474Z,0.00
2022-11-29T01:03:18.431Z,0.00
2022-11-29T01:04:18.427Z,0.00
2022-11-29T01:05:18.397Z,0.00
2022-11-29T01:06:18.448Z,0.00
2022-11-29T01:07:18.470Z,0.00
2022-11-29T01:08:18.364Z,0.00
2022-11-29T01:09:18.346Z,0.00
2022-11-29T01:10:18.348Z,0.00
2022-11-29T01:11:18.362Z,0.00
2022-11-29T01:12:18.357Z,0.00
2022-11-29T01:13:18.322Z,0.00
2022-11-29T01:14:18.297Z,0.00
2022-11-29T01:15:18.302Z,0.00
2022-11-29T01:16:18.374Z,0.00
2022-11-29T01:17:18.269Z,0.00
2022-11-29T01:18:18.259Z,0.00
2022-11-29T01:19:18.251Z,0.00
2022-11-29T01:20:18.228Z,0.00
2022-11-29T01:21:18.260Z,0.00
2022-11-29T01:22:18.217Z,0.00
2022-11-29T01:23:18.198Z,0.00
2022-11-29T01:24:18.188Z,0.00
2022-11-29T01:25:18.189Z,0.00
2022-11-29T01:26:18.201Z,0.00
2022-11-29T01:27:18.157Z,0.00
2022-11-29T01:28:18.162Z,0.00
2022-11-29T01:29:18.140Z,0.00
2022-11-29T01:30:18.126Z,0.00
2022-11-29T01:31:18.130Z,0.00
2022-11-29T01:32:18.130Z,0.00
2022-11-29T01:33:18.092Z,0.00
2022-11-29T01:34:18.095Z,0.00
2022-11-29T01:35:18.071Z,0.00
2022-11-29T01:36:18.082Z,0.00
2022-11-29T01:37:18.054Z,0.00
2022-11-29T01:38:18.084Z,0.00
2022-11-29T01:39:18.054Z,0.00
2022-11-29T01:40:18.025Z,0.00
2022-11-29T01:41:18.012Z,0.00
2022-11-29T01:42:18.004Z,0.00
2022-11-29T01:43:17.996Z,0.00
2022-11-29T01:44:19.469Z,0.00
2022-11-29T01:45:17.995Z,0.00
2022-11-29T01:46:18.038Z,0.00
2022-11-29T01:47:17.967Z,0.00
2022-11-29T01:48:17.964Z,0.00
2022-11-29T01:49:17.977Z,0.00
2022-11-29T01:50:17.919Z,0.00
2022-11-29T01:51:17.917Z,0.00
2022-11-29T01:52:17.898Z,0.00
2022-11-29T01:53:18.007Z,0.00
2022-11-29T01:54:17.879Z,0.00
2022-11-29T01:55:17.884Z,0.00
2022-11-29T01:56:17.903Z,0.00
2022-11-29T01:57:17.860Z,0.00
2022-11-29T01:58:17.838Z,0.00
2022-11-29T01:59:17.857Z,0.00
2022-11-29T02:00:17.826Z,0.00
2022-11-29T02:01:17.820Z,0.00
2022-11-29T02:02:17.855Z,0.00
2022-11-29T02:03:17.822Z,0.00
2022-11-29T02:04:17.774Z,0.00
2022-11-29T02:05:17.781Z,0.00
2022-11-29T02:06:17.755Z,0.00
2022-11-29T02:07:17.794Z,0.00
2022-11-29T02:08:17.727Z,0.00
2022-11-29T02:09:17.761Z,0.00
2022-11-29T02:10:17.708Z,0.00
2022-11-29T02:11:17.697Z,0.00
2022-11-29T02:12:17.702Z,0.00
2022-11-29T02:13:17.682Z,0.00
2022-11-29T02:14:17.674Z,0.00
2022-11-29T02:15:17.685Z,0.00
2022-11-29T02:16:17.755Z,0.00
2022-11-29T02:17:17.764Z,0.00
2022-11-29T02:18:17.617Z,0.00
2022-11-29T02:19:17.626Z,0.00
2022-11-29T02:20:17.608Z,0.00
2022-11-29T02:21:17.592Z,0.00
2022-11-29T02:22:17.591Z,0.00
2022-11-29T02:23:17.905Z,0.00
2022-11-29T02:24:17.566Z,0.00
2022-11-29T02:25:17.562Z,0.00
2022-11-29T02:26:17.544Z,0.00
2022-11-29T02:27:17.551Z,0.00
2022-11-29T02:28:17.514Z,0.00
2022-11-29T02:29:17.566Z,0.00
2022-11-29T02:30:17.502Z,0.00
2022-11-29T02:31:17.595Z,0.00
2022-11-29T02:32:17.462Z,0.00
2022-11-29T02:33:17.475Z,0.00
2022-11-29T02:34:17.447Z,0.00
2022-11-29T02:35:17.484Z,0.00
2022-11-29T02:36:17.448Z,0.00
2022-11-29T02:37:17.437Z,0.00
2022-11-29T02:38:17.414Z,0.00
2022-11-29T02:39:17.414Z,0.00
2022-11-29T02:40:17.398Z,0.00
2022-11-29T02:41:17.404Z,0.00
2022-11-29T02:42:17.365Z,0.00
2022-11-29T02:43:17.369Z,0.00
2022-11-29T02:44:17.341Z,0.00
2022-11-29T02:45:17.335Z,0.00
2022-11-29T02:46:17.502Z,0.00
2022-11-29T02:47:17.380Z,0.00
2022-11-29T02:48:17.294Z,0.00
2022-11-29T02:49:17.301Z,0.00
2022-11-29T02:50:17.277Z,0.00
2022-11-29T02:51:17.267Z,0.00
2022-11-29T02:52:17.272Z,0.00
2022-11-29T02:53:17.269Z,0.00
2022-11-29T02:54:17.268Z,0.00
2022-11-29T02:55:17.238Z,0.00
2022-11-29T02:56:17.266Z,0.00
2022-11-29T02:57:17.213Z,0.00
2022-11-29T02:58:17.197Z,0.00
2022-11-29T02:59:17.181Z,0.00
2022-11-29T03:00:17.216Z,0.00
2022-11-29T03:01:17.245Z,0.00
2022-11-29T03:02:17.207Z,0.00
2022-11-29T03:03:17.182Z,0.00
2022-11-29T03:04:17.150Z,0.00
2022-11-29T03:05:17.168Z,0.00
2022-11-29T03:06:17.117Z,0.00
2022-11-29T03:07:17.179Z,0.00
2022-11-29T03:08:17.104Z,0.00
2022-11-29T03:09:17.089Z,0.00
2022-11-29T03:10:17.090Z,0.00
2022-11-29T03:11:17.115Z,0.00
2022-11-29T03:12:17.063Z,0.00
2022-11-29T03:13:17.031Z,0.00
2022-11-29T03:14:17.029Z,0.00
2022-11-29T03:15:17.040Z,0.00
2022-11-29T03:16:17.081Z,0.00
2022-11-29T03:17:16.992Z,0.00
2022-11-29T03:18:17.006Z,0.00
2022-11-29T03:19:16.975Z,0.00
2022-11-29T03:20:16.974Z,0.00
2022-11-29T03:21:16.986Z,0.00
2022-11-29T03:22:16.942Z,0.00
2022-11-29T03:23:16.936Z,0.00
2022-11-29T03:24:16.959Z,0.00
2022-11-29T03:25:16.914Z,0.00
2022-11-29T03:26:16.906Z,0.00
2022-11-29T03:27:16.943Z,0.00
2022-11-29T03:28:16.901Z,0.00
2022-11-29T03:29:16.866Z,0.00
2022-11-29T03:30:16.878Z,0.00
2022-11-29T03:31:16.882Z,0.00
2022-11-29T03:32:16.827Z,0.00
2022-11-29T03:33:16.842Z,0.00
2022-11-29T03:34:16.803Z,0.00
2022-11-29T03:35:16.798Z,0.00
2022-11-29T03:36:16.770Z,0.00
2022-11-29T03:37:16.774Z,0.00
2022-11-29T03:38:16.763Z,0.00
2022-11-29T03:39:16.794Z,0.00
2022-11-29T03:40:16.753Z,0.00
2022-11-29T03:41:16.748Z,0.00
2022-11-29T03:42:16.732Z,0.00
2022-11-29T03:43:16.734Z,0.00
2022-11-29T03:44:16.715Z,0.00
2022-11-29T03:45:16.728Z,0.00
2022-11-29T03:46:16.771Z,0.00
2022-11-29T03:47:16.674Z,0.00
2022-11-29T03:48:16.673Z,0.00
2022-11-29T03:49:16.651Z,0.00
2022-11-29T03:50:16.637Z,0.00
2022-11-29T03:51:16.659Z,0.00
2022-11-29T03:52:16.618Z,0.00
2022-11-29T03:53:16.616Z,0.00
2022-11-29T03:54:16.599Z,0.00
2022-11-29T03:55:16.587Z,0.00
2022-11-29T03:56:16.582Z,0.00
2022-11-29T03:57:16.587Z,0.00
2022-11-29T03:58:16.559Z,0.00
2022-11-29T03:59:16.540Z,0.00
2022-11-29T04:00:16.537Z,0.00
2022-11-29T04:01:16.561Z,0.00
2022-11-29T04:02:16.603Z,0.00
2022-11-29T04:03:16.521Z,0.00
2022-11-29T04:04:16.500Z,0.00
2022-11-29T04:05:16.476Z,0.00
2022-11-29T04:06:16.459Z,0.00
2022-11-29T04:07:16.585Z,0.00
2022-11-29T04:08:16.444Z,0.00
2022-11-29T04:09:16.449Z,0.00
2022-11-29T04:10:16.448Z,0.00
2022-11-29T04:11:16.421Z,0.00
2022-11-29T04:12:16.404Z,0.00
2022-11-29T04:13:16.403Z,0.00
2022-11-29T04:14:16.402Z,0.00
2022-11-29T04:15:16.417Z,0.00
2022-11-29T04:16:16.426Z,0.00
2022-11-29T04:17:16.354Z,0.00
2022-11-29T04:18:16.330Z,0.00
2022-11-29T04:19:16.347Z,0.00
2022-11-29T04:20:16.317Z,0.00
2022-11-29T04:21:16.354Z,0.00
2022-11-29T04:22:16.306Z,0.00
2022-11-29T04:23:16.281Z,0.00
2022-11-29T04:24:16.272Z,0.00
2022-11-29T04:25:16.308Z,0.00
2022-11-29T04:26:16.243Z,0.00
2022-11-29T04:27:16.286Z,0.00
2022-11-29T04:28:16.236Z,0.00
2022-11-29T04:29:16.224Z,0.00
2022-11-29T04:30:16.202Z,0.00
2022-11-29T04:31:16.253Z,0.00
2022-11-29T04:32:16.186Z,0.00
2022-11-29T04:33:16.246Z,0.00
2022-11-29T04:34:16.160Z,0.00
2022-11-29T04:35:16.163Z,0.00
2022-11-29T04:36:16.152Z,0.00
2022-11-29T04:37:16.159Z,0.00
2022-11-29T04:38:16.132Z,0.00
2022-11-29T04:39:16.145Z,0.00
2022-11-29T04:40:16.097Z,0.00
2022-11-29T04:41:16.095Z,0.00
2022-11-29T04:42:16.077Z,0.00
2022-11-29T04:43:16.086Z,0.00
2022-11-29T04:44:16.054Z,0.00
2022-11-29T04:45:16.088Z,0.00
2022-11-29T04:46:16.085Z,0.00
2022-11-29T04:47:16.024Z,0.00
2022-11-29T04:48:16.018Z,0.00
2022-11-29T04:49:16.007Z,0.00
2022-11-29T04:50:15.997Z,0.00
2022-11-29T04:51:16.020Z,0.00
2022-11-29T04:52:15.981Z,0.00
2022-11-29T04:53:15.956Z,0.00
2022-11-29T04:54:15.962Z,0.00
2022-11-29T04:55:23.753Z,0.00
2022-11-29T04:56:16.945Z,0.00
2022-11-29T04:57:15.957Z,0.00
2022-11-29T04:58:15.932Z,0.00
2022-11-29T04:59:15.897Z,0.00
2022-11-29T05:00:15.928Z,0.00
2022-11-29T05:01:15.902Z,0.00
2022-11-29T05:02:15.926Z,0.00
2022-11-29T05:03:15.890Z,0.00
2022-11-29T05:04:15.848Z,0.00
2022-11-29T05:05:15.841Z,0.00
2022-11-29T05:06:15.818Z,0.00
2022-11-29T05:07:15.862Z,0.00
2022-11-29T05:08:15.830Z,0.00
2022-11-29T05:09:15.790Z,0.00
2022-11-29T05:10:15.782Z,0.00
2022-11-29T05:11:15.801Z,0.00
2022-11-29T05:12:15.759Z,0.00
2022-11-29T05:13:15.751Z,0.00
2022-11-29T05:14:15.760Z,0.00
2022-11-29T05:15:15.727Z,0.00
2022-11-29T05:16:15.823Z,0.00
2022-11-29T05:17:15.699Z,0.00
2022-11-29T05:18:15.696Z,0.00
2022-11-29T05:19:15.702Z,0.00
2022-11-29T05:20:15.659Z,0.00
2022-11-29T05:21:15.661Z,0.00
2022-11-29T05:22:15.644Z,0.00
2022-11-29T05:23:15.641Z,0.00
2022-11-29T05:24:15.662Z,0.00
2022-11-29T05:25:15.643Z,0.00
2022-11-29T05:26:15.604Z,0.00
2022-11-29T05:27:15.595Z,0.00
2022-11-29T05:28:15.586Z,0.00
2022-11-29T05:29:15.645Z,0.00
2022-11-29T05:30:15.554Z,0.00
2022-11-29T05:31:15.605Z,0.00
2022-11-29T05:32:15.533Z,0.00
2022-11-29T05:33:15.548Z,0.00
2022-11-29T05:34:15.546Z,0.00
2022-11-29T05:35:15.519Z,0.00
2022-11-29T05:36:15.497Z,0.00
2022-11-29T05:37:15.489Z,0.00
2022-11-29T05:38:15.492Z,0.00
2022-11-29T05:39:15.486Z,0.00
2022-11-29T05:40:15.446Z,0.00
2022-11-29T05:41:15.455Z,0.00
2022-11-29T05:42:15.424Z,0.00
2022-11-29T05:43:15.448Z,0.00
2022-11-29T05:44:15.445Z,0.00
2022-11-29T05:45:15.425Z,0.00
2022-11-29T05:46:15.443Z,0.00
2022-11-29T05:47:15.377Z,0.00
2022-11-29T05:48:15.364Z,0.00
2022-11-29T05:49:15.345Z,0.00
2022-11-29T05:50:15.347Z,0.00
2022-11-29T05:51:15.366Z,0.00
2022-11-29T05:52:15.316Z,0.00
2022-11-29T05:53:15.316Z,0.00
2022-11-29T05:54:15.300Z,0.00
2022-11-29T05:55:15.297Z,0.00
2022-11-29T05:56:15.280Z,0.00
2022-11-29T05:57:15.302Z,0.00
2022-11-29T05:58:15.251Z,0.00
2022-11-29T05:59:15.252Z,0.00
2022-11-29T06:00:15.320Z,0.00
2022-11-29T06:01:15.247Z,0.00
2022-11-29T06:02:15.290Z,0.00
2022-11-29T06:03:15.291Z,0.00
2022-11-29T06:04:15.386Z,0.00
2022-11-29T06:05:15.190Z,0.00
2022-11-29T06:06:15.182Z,0.00
2022-11-29T06:07:15.251Z,0.00
2022-11-29T06:08:15.156Z,0.00
2022-11-29T06:09:15.170Z,0.00
2022-11-29T06:10:15.119Z,0.00
2022-11-29T06:11:15.122Z,0.00
2022-11-29T06:12:20.632Z,0.00
2022-11-29T06:13:16.091Z,0.00
2022-11-29T06:14:15.081Z,0.00
2022-11-29T06:15:15.106Z,0.00
2022-11-29T06:16:15.082Z,0.00
2022-11-29T06:17:15.056Z,0.00
2022-11-29T06:18:15.073Z,0.00
2022-11-29T06:19:15.035Z,0.00
2022-11-29T06:20:15.022Z,0.00
2022-11-29T06:21:15.056Z,0.00
2022-11-29T06:22:14.991Z,0.00
2022-11-29T06:23:15.025Z,0.00
2022-11-29T06:24:15.008Z,0.00
2022-11-29T06:25:14.973Z,0.00
2022-11-29T06:26:14.954Z,0.00
2022-11-29T06:27:14.971Z,0.00
2022-11-29T06:28:14.945Z,0.00
2022-11-29T06:29:14.930Z,0.00
2022-11-29T06:30:14.913Z,0.00
2022-11-29T06:31:14.958Z,0.00
2022-11-29T06:32:14.890Z,0.00
2022-11-29T06:33:14.914Z,0.00
2022-11-29T06:34:14.872Z,0.00
2022-11-29T06:35:14.909Z,0.00
2022-11-29T06:36:14.862Z,0.00
2022-11-29T06:37:14.874Z,0.00
2022-11-29T06:38:14.859Z,0.00
2022-11-29T06:39:14.815Z,0.00
2022-11-29T06:40:14.827Z,0.00
2022-11-29T06:41:14.806Z,0.00
2022-11-29T06:42:14.789Z,0.00
2022-11-29T06:43:14.783Z,0.00
2022-11-29T06:44:14.785Z,0.00
2022-11-29T06:45:14.762Z,0.00
2022-11-29T06:46:14.857Z,0.00
2022-11-29T06:47:14.745Z,4.00
2022-11-29T06:48:14.723Z,4.00
2022-11-29T06:49:15.029Z,0.00
2022-11-29T06:50:14.705Z,0.00
2022-11-29T06:51:14.694Z,0.00
2022-11-29T06:52:14.699Z,4.00
2022-11-29T06:53:14.682Z,4.00
2022-11-29T06:54:14.657Z,0.00
2022-11-29T06:55:14.984Z,0.00
2022-11-29T06:56:14.642Z,0.00
2022-11-29T06:57:14.629Z,4.00
2022-11-29T06:58:14.628Z,4.00
2022-11-29T06:59:14.630Z,4.00
2022-11-29T07:00:14.619Z,4.00
2022-11-29T07:01:14.684Z,0.00
2022-11-29T07:02:14.670Z,0.00
2022-11-29T07:03:14.560Z,0.00
2022-11-29T07:04:14.559Z,0.00
2022-11-29T07:05:14.610Z,0.00
2022-11-29T07:06:14.532Z,4.00
2022-11-29T07:07:14.540Z,4.00
2022-11-29T07:08:14.521Z,4.00
2022-11-29T07:09:14.511Z,4.00
2022-11-29T07:10:15.092Z,4.00
2022-11-29T07:11:14.489Z,8.00
2022-11-29T07:12:14.463Z,4.00
2022-11-29T07:13:14.459Z,4.00
2022-11-29T07:14:14.471Z,4.00
2022-11-29T07:15:14.446Z,4.00
2022-11-29T07:16:14.450Z,8.00
2022-11-29T07:17:14.423Z,8.00
2022-11-29T07:18:14.403Z,4.00
2022-11-29T07:19:14.391Z,8.00
2022-11-29T07:20:14.413Z,8.00
2022-11-29T07:21:14.392Z,8.00
2022-11-29T07:22:14.375Z,8.00
2022-11-29T07:23:14.357Z,12.00
2022-11-29T07:24:14.376Z,8.00
2022-11-29T07:25:14.340Z,8.00
2022-11-29T07:26:14.359Z,8.00
2022-11-29T07:27:14.304Z,8.00
2022-11-29T07:28:14.297Z,8.00
2022-11-29T07:29:14.291Z,8.00
2022-11-29T07:30:14.262Z,8.00
2022-11-29T07:31:14.313Z,12.00
2022-11-29T07:32:14.287Z,12.00
2022-11-29T07:33:14.246Z,8.00
2022-11-29T07:34:14.227Z,12.00
2022-11-29T07:35:14.227Z,12.00
2022-11-29T07:36:14.211Z,12.00
2022-11-29T07:37:14.204Z,12.00
2022-11-29T07:38:14.230Z,12.00
2022-11-29T07:39:14.189Z,16.00
2022-11-29T07:40:14.177Z,16.00
2022-11-29T07:41:14.159Z,12.00
2022-11-29T07:42:14.186Z,12.00
2022-11-29T07:43:14.137Z,16.00
2022-11-29T07:44:14.167Z,16.00
2022-11-29T07:45:14.129Z,16.00
2022-11-29T07:46:14.181Z,16.00
2022-11-29T07:47:14.151Z,16.00
2022-11-29T07:48:14.100Z,16.00
2022-11-29T07:49:14.087Z,16.00
2022-11-29T07:50:14.100Z,16.00
2022-11-29T07:51:14.051Z,16.00
2022-11-29T07:52:14.062Z,16.00
2022-11-29T07:53:14.040Z,20.00
2022-11-29T07:54:14.035Z,16.00
2022-11-29T07:55:18.476Z,20.00
2022-11-29T07:56:15.035Z,20.00
2022-11-29T07:57:14.022Z,16.00
2022-11-29T07:58:13.982Z,20.00
2022-11-29T07:59:13.976Z,20.00
2022-11-29T08:00:13.962Z,20.00
2022-11-29T08:01:14.012Z,20.00
2022-11-29T08:02:13.989Z,24.00
2022-11-29T08:03:13.948Z,24.00
2022-11-29T08:04:13.923Z,20.00
2022-11-29T08:05:13.932Z,24.00
2022-11-29T08:06:13.880Z,20.00
2022-11-29T08:07:13.884Z,20.00
2022-11-29T08:08:13.905Z,24.00
2022-11-29T08:09:13.859Z,24.00
2022-11-29T08:10:13.841Z,24.00
2022-11-29T08:11:13.841Z,24.00
2022-11-29T08:12:13.825Z,24.00
2022-11-29T08:13:13.867Z,24.00
2022-11-29T08:14:13.834Z,24.00
2022-11-29T08:15:13.799Z,28.00
2022-11-29T08:16:13.806Z,28.00
2022-11-29T08:17:13.773Z,24.00
2022-11-29T08:18:13.775Z,28.00
2022-11-29T08:19:13.772Z,24.00
2022-11-29T08:20:13.743Z,24.00
2022-11-29T08:21:13.735Z,24.00
2022-11-29T08:22:13.715Z,24.00
2022-11-29T08:23:13.717Z,24.00
2022-11-29T08:24:13.712Z,24.00
2022-11-29T08:25:13.697Z,28.00
2022-11-29T08:26:13.666Z,24.00
2022-11-29T08:27:13.664Z,28.00
2022-11-29T08:28:13.670Z,28.00
2022-11-29T08:29:13.666Z,28.00
2022-11-29T08:30:13.644Z,28.00
2022-11-29T08:31:13.694Z,32.00
2022-11-29T08:32:13.640Z,28.00
2022-11-29T08:33:13.609Z,32.00
2022-11-29T08:34:13.597Z,32.00
2022-11-29T08:35:13.581Z,32.00
2022-11-29T08:36:13.726Z,32.00
2022-11-29T08:37:13.562Z,32.00
2022-11-29T08:38:13.538Z,32.00
2022-11-29T08:39:13.547Z,32.00
2022-11-29T08:40:13.566Z,32.00
2022-11-29T08:41:13.521Z,32.00
2022-11-29T08:42:13.497Z,32.00
2022-11-29T08:43:13.500Z,36.00
2022-11-29T08:44:13.523Z,36.00
2022-11-29T08:45:13.482Z,32.00
2022-11-29T08:46:18.242Z,36.00
2022-11-29T08:47:14.464Z,36.00
2022-11-29T08:48:13.521Z,36.00
2022-11-29T08:49:13.430Z,40.00
2022-11-29T08:50:13.435Z,40.00
2022-11-29T08:51:13.409Z,36.00
2022-11-29T08:52:13.396Z,40.00
2022-11-29T08:53:13.387Z,40.00
2022-11-29T08:54:13.419Z,40.00
2022-11-29T08:55:13.358Z,40.00
2022-11-29T08:56:53.376Z,40.00
2022-11-29T08:57:39.391Z,40.00
2022-11-29T08:58:14.320Z,40.00
2022-11-29T08:59:13.332Z,40.00
2022-11-29T09:00:13.381Z,40.00
2022-11-29T09:01:13.362Z,40.00
2022-11-29T09:02:13.341Z,40.00
2022-11-29T09:03:13.272Z,40.00
2022-11-29T09:04:13.367Z,40.00
2022-11-29T09:05:13.262Z,44.00
2022-11-29T09:06:13.240Z,44.00
2022-11-29T09:07:13.274Z,40.00
2022-11-29T09:08:13.221Z,44.00
2022-11-29T09:09:13.221Z,44.00
2022-11-29T09:10:13.217Z,44.00
2022-11-29T09:11:13.228Z,40.00
2022-11-29T09:12:13.205Z,40.00
2022-11-29T09:13:13.196Z,44.00
2022-11-29T09:14:13.163Z,44.00
2022-11-29T09:15:13.168Z,44.00
2022-11-29T09:16:13.179Z,44.00
2022-11-29T09:17:13.124Z,48.00
2022-11-29T09:18:13.125Z,44.00
2022-11-29T09:19:13.216Z,44.00
2022-11-29T09:20:13.106Z,44.00
2022-11-29T09:21:13.103Z,44.00
2022-11-29T09:22:13.066Z,44.00
2022-11-29T09:23:13.097Z,44.00
2022-11-29T09:24:13.043Z,44.00
2022-11-29T09:25:13.080Z,48.00
2022-11-29T09:26:13.017Z,48.00
2022-11-29T09:27:13.026Z,48.00
2022-11-29T09:28:13.006Z,48.00
2022-11-29T09:29:13.012Z,48.00
2022-11-29T09:30:12.985Z,44.00
2022-11-29T09:31:13.042Z,44.00
2022-11-29T09:32:12.990Z,44.00
2022-11-29T09:33:12.952Z,48.00
2022-11-29T09:34:13.108Z,48.00
2022-11-29T09:35:12.948Z,48.00
2022-11-29T09:36:12.917Z,52.00
2022-11-29T09:37:12.955Z,48.00
2022-11-29T09:38:12.913Z,52.00
2022-11-29T09:39:12.896Z,56.00
2022-11-29T09:40:12.899Z,52.00
2022-11-29T09:41:12.879Z,56.00
2022-11-29T09:42:12.872Z,56.00
2022-11-29T09:43:12.886Z,56.00
2022-11-29T09:44:12.829Z,52.00
2022-11-29T09:45:12.856Z,52.00
2022-11-29T09:46:12.852Z,56.00
2022-11-29T09:47:12.803Z,52.00
2022-11-29T09:48:12.820Z,52.00
2022-11-29T09:49:12.822Z,48.00
2022-11-29T09:50:12.783Z,48.00
2022-11-29T09:51:12.751Z,52.00
2022-11-29T09:52:12.752Z,48.00
2022-11-29T09:53:12.731Z,52.00
2022-11-29T09:54:12.719Z,48.00
2022-11-29T09:55:12.730Z,48.00
2022-11-29T09:56:12.717Z,48.00
2022-11-29T09:57:12.692Z,48.00
2022-11-29T09:58:12.697Z,48.00
2022-11-29T09:59:12.682Z,48.00
2022-11-29T10:00:12.664Z,48.00
2022-11-29T10:01:12.722Z,48.00
2022-11-29T10:02:15.931Z,48.00
2022-11-29T10:03:13.648Z,44.00
2022-11-29T10:04:12.643Z,44.00
2022-11-29T10:05:12.601Z,48.00
2022-11-29T10:06:12.608Z,44.00
2022-11-29T10:07:12.604Z,48.00
2022-11-29T10:08:12.574Z,48.00
2022-11-29T10:09:12.565Z,48.00
2022-11-29T10:10:12.561Z,48.00
2022-11-29T10:11:12.564Z,48.00
2022-11-29T10:12:12.535Z,44.00
2022-11-29T10:13:12.563Z,44.00
2022-11-29T10:14:12.503Z,48.00
2022-11-29T10:15:12.495Z,52.00
2022-11-29T10:16:12.560Z,52.00
2022-11-29T10:17:12.481Z,56.00
2022-11-29T10:18:12.468Z,52.00
2022-11-29T10:19:12.493Z,52.00
2022-11-29T10:20:12.456Z,52.00
2022-11-29T10:21:12.444Z,56.00
2022-11-29T10:22:12.453Z,56.00
2022-11-29T10:23:12.408Z,56.00
2022-11-29T10:24:12.407Z,56.00
2022-11-29T10:25:12.400Z,60.00
2022-11-29T10:26:12.366Z,56.00
2022-11-29T10:27:12.413Z,60.00
2022-11-29T10:28:12.346Z,64.00
2022-11-29T10:29:12.360Z,60.00
2022-11-29T10:30:12.335Z,64.00
2022-11-29T10:31:12.416Z,64.00
2022-11-29T10:32:12.301Z,64.00
2022-11-29T10:33:12.346Z,60.00
2022-11-29T10:34:12.298Z,64.00
2022-11-29T10:35:12.288Z,64.00
2022-11-29T10:36:12.269Z,68.00
2022-11-29T10:37:12.263Z,64.00
2022-11-29T10:38:30.459Z,68.00
2022-11-29T10:39:14.682Z,68.00
2022-11-29T10:40:12.220Z,68.00
2022-11-29T10:41:12.220Z,68.00
2022-11-29T10:42:12.200Z,68.00
2022-11-29T10:43:12.224Z,68.00
2022-11-29T10:44:12.196Z,68.00
2022-11-29T10:45:12.210Z,68.00
2022-11-29T10:46:12.230Z,68.00
2022-11-29T10:47:12.150Z,68.00
2022-11-29T10:48:12.158Z,68.00
2022-11-29T10:49:12.149Z,68.00
2022-11-29T10:50:12.102Z,64.00
2022-11-29T10:51:12.177Z,64.00
2022-11-29T10:52:12.112Z,64.00
2022-11-29T10:53:12.080Z,64.00
2022-11-29T10:54:12.072Z,68.00
2022-11-29T10:55:12.071Z,64.00
2022-11-29T10:56:12.072Z,64.00
2022-11-29T10:57:12.070Z,68.00
2022-11-29T10:58:12.032Z,64.00
2022-11-29T10:59:12.029Z,64.00
2022-11-29T11:00:12.013Z,64.00
2022-11-29T11:01:12.054Z,64.00
2022-11-29T11:02:11.989Z,64.00
2022-11-29T11:03:11.991Z,60.00
2022-11-29T11:04:11.961Z,60.00
2022-11-29T11:05:12.038Z,60.00
2022-11-29T11:06:11.942Z,56.00
2022-11-29T11:07:11.935Z,56.00
2022-11-29T11:08:11.961Z,52.00
2022-11-29T11:09:11.915Z,52.00
2022-11-29T11:10:11.918Z,52.00
2022-11-29T11:11:11.892Z,56.00
2022-11-29T11:12:11.903Z,56.00
2022-11-29T11:13:11.914Z,56.00
2022-11-29T11:14:11.864Z,56.00
2022-11-29T11:15:11.894Z,56.00
2022-11-29T11:16:11.834Z,52.00
2022-11-29T11:17:11.871Z,52.00
2022-11-29T11:18:11.852Z,48.00
2022-11-29T11:19:11.828Z,48.00
2022-11-29T11:20:11.819Z,44.00
2022-11-29T11:21:11.775Z,48.00
2022-11-29T11:22:11.768Z,44.00
2022-11-29T11:23:11.758Z,44.00
2022-11-29T11:24:11.768Z,40.00
2022-11-29T11:25:11.736Z,40.00
2022-11-29T11:26:11.759Z,40.00
2022-11-29T11:27:11.714Z,40.00
2022-11-29T11:28:11.744Z,40.00
2022-11-29T11:29:11.691Z,40.00
2022-11-29T11:30:11.675Z,44.00
2022-11-29T11:31:11.774Z,40.00
2022-11-29T11:32:11.657Z,40.00
2022-11-29T11:33:11.678Z,40.00
2022-11-29T11:34:11.659Z,40.00
2022-11-29T11:35:17.045Z,40.00
2022-11-29T11:36:12.602Z,40.00
2022-11-29T11:37:11.596Z,44.00
2022-11-29T11:38:11.628Z,44.00
2022-11-29T11:39:11.578Z,48.00
2022-11-29T11:40:11.632Z,52.00
2022-11-29T11:41:11.556Z,56.00
2022-11-29T11:42:11.560Z,60.00
2022-11-29T11:43:11.541Z,68.00
2022-11-29T11:44:15.319Z,68.00
2022-11-29T11:45:12.541Z,72.00
2022-11-29T11:46:16.633Z,76.00
2022-11-29T11:47:12.501Z,76.00
2022-11-29T11:48:11.482Z,84.00
2022-11-29T11:49:11.509Z,88.00
2022-11-29T11:50:11.451Z,96.00
2022-11-29T11:51:11.487Z,104.00
2022-11-29T11:52:11.435Z,108.00
2022-11-29T11:53:11.423Z,112.00
2022-11-29T11:54:11.443Z,116.00
2022-11-29T11:55:11.405Z,120.00
2022-11-29T11:56:11.452Z,120.00
2022-11-29T11:57:11.408Z,116.00
2022-11-29T11:58:11.380Z,116.00
2022-11-29T11:59:11.442Z,116.00
2022-11-29T12:00:11.352Z,116.00
2022-11-29T12:01:11.353Z,116.00
2022-11-29T12:02:11.386Z,116.00
2022-11-29T12:03:11.506Z,112.00
2022-11-29T12:04:11.335Z,112.00
2022-11-29T12:05:11.309Z,116.00
2022-11-29T12:06:11.290Z,120.00
2022-11-29T12:07:11.315Z,116.00
2022-11-29T12:08:11.350Z,120.00
2022-11-29T12:09:11.287Z,112.00
2022-11-29T12:10:11.265Z,108.00
2022-11-29T12:11:11.243Z,88.00
2022-11-29T12:12:11.227Z,100.00
2022-11-29T12:13:11.225Z,100.00
2022-11-29T12:14:11.225Z,96.00
2022-11-29T12:15:11.196Z,100.00
2022-11-29T12:16:11.226Z,112.00
2022-11-29T12:17:15.448Z,104.00
2022-11-29T12:18:12.167Z,104.00
2022-11-29T12:19:11.186Z,92.00
2022-11-29T12:20:11.144Z,100.00
2022-11-29T12:21:11.138Z,104.00
2022-11-29T12:22:11.121Z,96.00
2022-11-29T12:23:11.120Z,96.00
2022-11-29T12:24:11.127Z,92.00
2022-11-29T12:25:11.087Z,92.00
2022-11-29T12:26:13.649Z,76.00
2022-11-29T12:27:12.148Z,96.00
2022-11-29T12:28:11.878Z,100.00
2022-11-29T12:29:11.057Z,88.00
2022-11-29T12:30:11.114Z,96.00
2022-11-29T12:31:11.048Z,88.00
2022-11-29T12:32:10.997Z,92.00
2022-11-29T12:33:10.996Z,100.00
2022-11-29T12:34:11.003Z,96.00
2022-11-29T12:35:14.841Z,84.00
2022-11-29T12:36:12.023Z,84.00
2022-11-29T12:37:10.952Z,92.00
2022-11-29T12:38:10.953Z,92.00
2022-11-29T12:39:10.931Z,88.00
2022-11-29T12:40:11.003Z,88.00
2022-11-29T12:41:10.933Z,88.00
2022-11-29T12:42:10.940Z,80.00
2022-11-29T12:43:10.881Z,88.00
2022-11-29T12:44:10.876Z,92.00
2022-11-29T12:45:10.860Z,88.00
2022-11-29T12:46:10.908Z,88.00
2022-11-29T12:47:35.225Z,88.00
2022-11-29T12:48:11.871Z,84.00
2022-11-29T12:49:10.835Z,84.00
2022-11-29T12:50:10.837Z,84.00
2022-11-29T12:51:10.811Z,80.00
2022-11-29T12:52:10.820Z,84.00
2022-11-29T12:53:10.793Z,80.00
2022-11-29T12:54:10.797Z,80.00
2022-11-29T12:55:10.774Z,76.00
2022-11-29T12:56:10.764Z,80.00
2022-11-29T12:57:10.733Z,76.00
2022-11-29T12:58:10.757Z,76.00
2022-11-29T12:59:10.717Z,76.00
2022-11-29T13:00:10.724Z,72.00
2022-11-29T13:01:10.701Z,72.00
2022-11-29T13:02:10.708Z,76.00
2022-11-29T13:03:10.726Z,72.00
2022-11-29T13:04:10.654Z,72.00
2022-11-29T13:05:11.545Z,72.00
2022-11-29T13:06:10.646Z,68.00